This is the latest recevied weather packets stored in our database for station/object IZ2MHJ-3. If no packets are shown the sender has not sent any weather packets the latest 10 day(s).
| Time | Temp. | Humidity | Pressure | Rain* | Wind** | Luminosity | Snow |
|---|---|---|---|---|---|---|---|
| 1788111539 | 31.11° C | 40% | 1014.8 hPa | - | - | - | - |
| 1788110339 | 31.11° C | 42% | 1014.8 hPa | - | - | - | - |
| 1788109139 | 32.22° C | 39% | 1014.6 hPa | - | - | - | - |
| 1788107938 | 32.22° C | 40% | 1014.9 hPa | - | - | - | - |
| 1788106738 | 32.22° C | 42% | 1014.9 hPa | - | - | - | - |
| 1788105538 | 32.22° C | 41% | 1014.9 hPa | - | - | - | - |
| 1788104337 | 33.33° C | 40% | 1014.9 hPa | - | - | - | - |
| 1788103137 | 34.44° C | 38% | 1014.9 hPa | - | - | - | - |
| 1788101937 | 33.33° C | 40% | 1015.1 hPa | - | - | - | - |
| 1788100736 | 33.89° C | 38% | 1015 hPa | - | - | - | - |
| 1788099536 | 33.89° C | 40% | 1015.2 hPa | - | - | - | - |
| 1788098336 | 36.11° C | 36% | 1015.1 hPa | - | - | - | - |
| 1788097136 | 32.22° C | 44% | 1015.6 hPa | - | - | - | - |
| 1788095935 | 33.33° C | 42% | 1015.7 hPa | - | - | - | - |
| 1788094735 | 33.89° C | 40% | 1015.7 hPa | - | - | - | - |
| 1788093535 | 33.89° C | 41% | 1015.9 hPa | - | - | - | - |
| 1788092334 | 36.11° C | 36% | 1015.8 hPa | - | - | - | - |
| 1788091134 | 35.56° C | 37% | 1016 hPa | - | - | - | - |
| 1788089934 | 33.33° C | 38% | 1016.3 hPa | - | - | - | - |
| 1788088733 | 32.22° C | 44% | 1016.4 hPa | - | - | - | - |
| 1788087533 | 32.22° C | 47% | 1016.6 hPa | - | - | - | - |
| 1788086333 | 33.89° C | 44% | 1016.4 hPa | - | - | - | - |
| 1788085132 | 30.56° C | 49% | 1016.9 hPa | - | - | - | - |
| 1788083932 | 31.67° C | 47% | 1017 hPa | - | - | - | - |
| 1788082732 | 31.11° C | 48% | 1017.2 hPa | - | - | - | - |
* Rain since midnight (hover to see other rain measurements)
** Current wind speed in m/s (hover to see current wind gust speed)